createdAt,value
2023-02-17T00:01:44.241Z,97791.25
2023-02-17T00:04:13.360Z,97791.66
2023-02-17T00:06:43.092Z,97782.91
2023-02-17T00:09:11.406Z,97775.44
2023-02-17T00:11:40.033Z,97778.63
2023-02-17T00:14:10.440Z,97772.41
2023-02-17T00:16:39.066Z,97779.31
2023-02-17T00:19:24.934Z,97773.94
2023-02-17T00:21:57.498Z,97764.44
2023-02-17T00:24:26.874Z,97765.69
2023-02-17T00:26:55.933Z,97772.00
2023-02-17T00:29:28.106Z,97765.38
2023-02-17T00:31:57.472Z,97767.88
2023-02-17T00:34:28.005Z,97772.28
2023-02-17T00:36:57.813Z,97772.34
2023-02-17T00:39:27.628Z,97765.75
2023-02-17T00:41:56.168Z,97767.69
2023-02-17T00:44:26.580Z,97769.66
2023-02-17T00:46:55.410Z,97771.47
2023-02-17T00:49:27.638Z,97761.59
2023-02-17T00:52:01.209Z,97758.00
2023-02-17T00:54:29.902Z,97761.19
2023-02-17T00:56:58.371Z,97754.69
2023-02-17T00:59:26.689Z,97762.38
2023-02-17T01:01:54.989Z,97770.84
2023-02-17T01:04:23.402Z,97769.34
2023-02-17T01:06:52.052Z,97770.75
2023-02-17T01:09:21.812Z,97775.41
2023-02-17T01:11:50.549Z,97773.91
2023-02-17T01:14:19.467Z,97771.09
2023-02-17T01:16:50.441Z,97763.63
2023-02-17T01:19:20.664Z,97764.78
2023-02-17T01:21:50.386Z,97775.38
2023-02-17T01:24:18.764Z,97765.41
2023-02-17T01:26:48.609Z,97766.19
2023-02-17T01:29:18.010Z,97760.53
2023-02-17T01:31:46.477Z,97755.91
2023-02-17T01:34:15.131Z,97752.47
2023-02-17T01:36:43.437Z,97749.78
2023-02-17T01:39:15.711Z,97743.56
2023-02-17T01:41:44.635Z,97737.81
2023-02-17T01:44:19.207Z,97743.19
2023-02-17T01:46:50.674Z,97740.81
2023-02-17T01:49:36.858Z,97740.91
2023-02-17T01:52:13.782Z,97745.28
2023-02-17T01:54:49.819Z,97734.22
2023-02-17T01:57:24.678Z,97731.84
2023-02-17T01:59:55.686Z,97735.94
2023-02-17T02:02:24.459Z,97730.00
2023-02-17T02:04:55.349Z,97721.34
2023-02-17T02:07:32.800Z,97721.34
2023-02-17T02:10:02.101Z,97716.53
2023-02-17T02:12:34.579Z,97722.19
2023-02-17T02:15:10.257Z,97719.75
2023-02-17T02:18:04.313Z,97719.13
2023-02-17T02:21:15.051Z,97708.28
2023-02-17T02:24:23.024Z,97706.94
2023-02-17T02:27:52.114Z,97701.31
2023-02-17T02:31:04.708Z,97694.88
2023-02-17T02:33:44.196Z,97695.16
2023-02-17T02:36:20.990Z,97683.84
2023-02-17T02:39:00.946Z,97685.69
2023-02-17T02:41:37.411Z,97679.00
2023-02-17T02:44:07.804Z,97673.91
2023-02-17T02:46:36.987Z,97677.75
2023-02-17T02:49:08.808Z,97677.78
2023-02-17T02:51:53.597Z,97675.41
2023-02-17T02:54:47.562Z,97669.50
2023-02-17T02:57:34.639Z,97663.81
2023-02-17T03:00:19.185Z,97669.00
2023-02-17T03:02:56.976Z,97662.00
2023-02-17T03:05:41.506Z,97661.22
2023-02-17T03:08:16.736Z,97658.78
2023-02-17T03:10:50.476Z,97663.69
2023-02-17T03:13:19.822Z,97662.63
2023-02-17T03:15:49.277Z,97660.75
2023-02-17T03:18:18.045Z,97660.22
2023-02-17T03:20:56.099Z,97660.47
2023-02-17T03:23:24.463Z,97649.38
2023-02-17T03:25:53.017Z,97648.56
2023-02-17T03:28:21.435Z,97644.22
2023-02-17T03:30:49.919Z,97639.63
2023-02-17T03:33:18.246Z,97640.69
2023-02-17T03:35:47.966Z,97652.88
2023-02-17T03:38:16.366Z,97645.84
2023-02-17T03:40:44.732Z,97653.69
2023-02-17T03:43:13.046Z,97649.03
2023-02-17T03:45:41.360Z,97644.97
2023-02-17T03:48:09.627Z,97649.59
2023-02-17T03:50:37.988Z,97647.97
2023-02-17T03:53:07.797Z,97646.63
2023-02-17T03:55:36.161Z,97642.56
2023-02-17T03:58:05.108Z,97646.34
2023-02-17T04:00:33.559Z,97653.13
2023-02-17T04:03:02.220Z,97648.22
2023-02-17T04:05:30.971Z,97646.31
2023-02-17T04:07:59.621Z,97645.22
2023-02-17T04:10:29.360Z,97654.44
2023-02-17T04:12:57.658Z,97647.09
2023-02-17T04:15:26.059Z,97653.06
2023-02-17T04:17:54.464Z,97645.75
2023-02-17T04:20:23.357Z,97653.88
2023-02-17T04:22:51.671Z,97646.81
2023-02-17T04:25:20.288Z,97643.78
2023-02-17T04:27:50.043Z,97642.41
2023-02-17T04:30:18.785Z,97642.13
2023-02-17T04:32:47.191Z,97645.69
2023-02-17T04:35:16.036Z,97658.19
2023-02-17T04:37:44.484Z,97654.66
2023-02-17T04:40:14.189Z,97642.19
2023-02-17T04:42:42.567Z,97641.94
2023-02-17T04:45:15.233Z,97633.78
2023-02-17T04:47:43.585Z,97636.81
2023-02-17T04:50:13.396Z,97639.81
2023-02-17T04:52:41.991Z,97632.78
2023-02-17T04:55:10.421Z,97646.59
2023-02-17T04:57:39.680Z,97639.78
2023-02-17T05:00:10.011Z,97640.88
2023-02-17T05:02:39.750Z,97641.69
2023-02-17T05:05:08.886Z,97637.06
2023-02-17T05:07:37.315Z,97638.13
2023-02-17T05:10:06.368Z,97629.13
2023-02-17T05:12:35.504Z,97623.91
2023-02-17T05:15:03.927Z,97618.16
2023-02-17T05:17:32.212Z,97612.97
2023-02-17T05:20:02.598Z,97621.13
2023-02-17T05:22:31.363Z,97613.84
2023-02-17T05:25:00.003Z,97612.72
2023-02-17T05:27:28.381Z,97621.97
2023-02-17T05:29:57.046Z,97623.84
2023-02-17T05:32:25.746Z,97624.41
2023-02-17T05:34:54.313Z,97629.53
2023-02-17T05:37:24.108Z,97632.28
2023-02-17T05:39:52.410Z,97630.97
2023-02-17T05:42:21.024Z,97637.97
2023-02-17T05:44:49.381Z,97638.22
2023-02-17T05:47:17.973Z,97634.06
2023-02-17T05:49:46.581Z,97633.97
2023-02-17T05:52:15.286Z,97635.25
2023-02-17T05:54:45.049Z,97642.06
2023-02-17T05:57:13.936Z,97636.88
2023-02-17T05:59:42.507Z,97636.56
2023-02-17T06:02:13.014Z,97643.13
2023-02-17T06:04:41.794Z,97636.38
2023-02-17T06:07:12.369Z,97635.53
2023-02-17T06:09:40.662Z,97633.34
2023-02-17T06:12:10.520Z,97635.78
2023-02-17T06:14:39.004Z,97638.69
2023-02-17T06:17:07.345Z,97638.34
2023-02-17T06:19:36.060Z,97632.41
2023-02-17T06:22:04.520Z,97628.84
2023-02-17T06:24:33.041Z,97632.13
2023-02-17T06:27:02.902Z,97620.63
2023-02-17T06:29:32.723Z,97626.34
2023-02-17T06:32:01.089Z,97627.44
2023-02-17T06:34:29.647Z,97630.72
2023-02-17T06:36:58.037Z,97625.59
2023-02-17T06:39:26.480Z,97630.69
2023-02-17T06:41:55.090Z,97629.34
2023-02-17T06:44:23.554Z,97636.16
2023-02-17T06:46:53.444Z,97644.53
2023-02-17T06:49:21.942Z,97642.38
2023-02-17T06:51:50.402Z,97636.59
2023-02-17T06:54:19.038Z,97634.16
2023-02-17T06:56:47.799Z,97637.41
2023-02-17T06:59:16.322Z,97649.09
2023-02-17T07:01:45.739Z,97648.84
2023-02-17T07:04:15.432Z,97656.66
2023-02-17T07:06:44.096Z,97645.00
2023-02-17T07:09:14.036Z,97651.97
2023-02-17T07:11:45.233Z,97649.25
2023-02-17T07:14:13.915Z,97651.97
2023-02-17T07:16:42.319Z,97650.34
2023-02-17T07:19:10.700Z,97653.88
2023-02-17T07:21:40.491Z,97655.97
2023-02-17T07:24:09.678Z,97662.50
2023-02-17T07:26:39.592Z,97664.16
2023-02-17T07:29:09.645Z,97667.09
2023-02-17T07:31:38.729Z,97657.28
2023-02-17T07:34:07.295Z,97661.84
2023-02-17T07:36:39.052Z,97654.41
2023-02-17T07:39:08.707Z,97657.28
2023-02-17T07:41:37.062Z,97647.34
2023-02-17T07:44:11.166Z,97645.34
2023-02-17T07:46:40.774Z,97652.00
2023-02-17T07:49:09.404Z,97649.22
2023-02-17T07:51:37.784Z,97658.09
2023-02-17T07:54:06.573Z,97655.22
2023-02-17T07:56:36.437Z,97650.66
2023-02-17T07:59:04.997Z,97655.72
2023-02-17T08:01:33.368Z,97656.13
2023-02-17T08:04:02.221Z,97655.31
2023-02-17T08:06:31.364Z,97654.22
2023-02-17T08:09:17.341Z,97664.75
2023-02-17T08:12:04.475Z,97668.28
2023-02-17T08:14:33.798Z,97669.38
2023-02-17T08:17:02.523Z,97665.56
2023-02-17T08:19:46.689Z,97666.53
2023-02-17T08:22:16.223Z,97679.78
2023-02-17T08:24:44.623Z,97672.19
2023-02-17T08:27:15.612Z,97688.34
2023-02-17T08:29:44.744Z,97687.50
2023-02-17T08:33:17.885Z,97671.31
2023-02-17T08:35:46.296Z,97672.91
2023-02-17T08:38:15.057Z,97668.94
2023-02-17T08:40:43.630Z,97669.97
2023-02-17T08:43:13.664Z,97677.47
2023-02-17T08:45:42.387Z,97674.38
2023-02-17T08:48:10.961Z,97669.88
2023-02-17T08:50:39.421Z,97668.69
2023-02-17T08:53:07.609Z,97680.59
2023-02-17T08:55:48.561Z,97686.72
2023-02-17T08:58:19.513Z,97683.13
2023-02-17T09:00:47.852Z,97686.97
2023-02-17T09:03:16.844Z,97687.00
2023-02-17T09:05:45.574Z,97678.00
2023-02-17T09:08:13.981Z,97682.38
2023-02-17T09:10:42.414Z,97673.28
2023-02-17T09:13:10.818Z,97674.78
2023-02-17T09:15:40.758Z,97671.53
2023-02-17T09:18:09.308Z,97683.91
2023-02-17T09:20:39.851Z,97679.25
2023-02-17T09:23:08.713Z,97686.22
2023-02-17T09:25:37.307Z,97692.28
2023-02-17T09:28:06.482Z,97688.44
2023-02-17T09:30:35.198Z,97680.06
2023-02-17T09:33:05.444Z,97683.28
2023-02-17T09:35:34.858Z,97681.78
2023-02-17T09:38:03.360Z,97673.88
2023-02-17T09:40:43.974Z,97670.13
2023-02-17T09:43:17.828Z,97672.16
2023-02-17T09:45:52.052Z,97663.84
2023-02-17T09:48:29.825Z,97667.81
2023-02-17T09:51:05.858Z,97660.19
2023-02-17T09:53:42.352Z,97665.66
2023-02-17T09:56:19.818Z,97667.19
2023-02-17T09:58:54.446Z,97662.75
2023-02-17T10:01:30.237Z,97666.50
2023-02-17T10:04:09.646Z,97664.75
2023-02-17T10:06:41.952Z,97664.16
2023-02-17T10:09:19.478Z,97669.19
2023-02-17T10:11:56.115Z,97665.66
2023-02-17T10:14:32.214Z,97662.00
2023-02-17T10:17:09.520Z,97659.03
2023-02-17T10:19:55.131Z,97666.22
2023-02-17T10:22:26.848Z,97661.94
2023-02-17T10:24:56.013Z,97667.06
2023-02-17T10:27:38.964Z,97656.22
2023-02-17T10:30:39.883Z,97662.69
2023-02-17T10:33:21.538Z,97656.91
2023-02-17T10:35:54.750Z,97659.16
2023-02-17T10:38:44.484Z,97667.84
2023-02-17T10:41:18.805Z,97660.97
2023-02-17T10:43:49.427Z,97664.69
2023-02-17T10:46:26.993Z,97662.59
2023-02-17T10:48:59.993Z,97659.41
2023-02-17T10:51:32.345Z,97664.28
2023-02-17T10:54:07.204Z,97665.31
2023-02-17T10:56:41.917Z,97656.91
2023-02-17T10:59:23.102Z,97658.69
2023-02-17T11:01:52.110Z,97646.34
2023-02-17T11:04:20.423Z,97647.66
2023-02-17T11:06:55.992Z,97647.53
2023-02-17T11:09:28.828Z,97640.88
2023-02-17T11:12:03.668Z,97646.50
2023-02-17T11:14:41.709Z,97642.78
2023-02-17T11:17:30.318Z,97648.09
2023-02-17T11:20:04.964Z,97637.31
2023-02-17T11:22:40.910Z,97635.34
2023-02-17T11:25:25.586Z,97631.53
2023-02-17T11:27:55.477Z,97627.88
2023-02-17T11:30:27.612Z,97619.66
2023-02-17T11:32:56.886Z,97614.50
2023-02-17T11:35:29.781Z,97601.72
2023-02-17T11:38:11.995Z,97600.78
2023-02-17T11:40:41.011Z,97599.69
2023-02-17T11:43:19.156Z,97594.72
2023-02-17T11:46:00.976Z,97603.16
2023-02-17T11:49:16.539Z,97601.53
2023-02-17T11:52:01.604Z,97603.34
2023-02-17T11:54:40.421Z,97607.56
2023-02-17T11:57:31.499Z,97600.03
2023-02-17T12:00:14.803Z,97592.16
2023-02-17T12:03:44.672Z,97595.50
2023-02-17T12:06:22.209Z,97585.25
2023-02-17T12:09:10.878Z,97582.19
2023-02-17T12:11:55.455Z,97583.97
2023-02-17T12:14:52.198Z,97577.84
2023-02-17T12:17:36.829Z,97576.38
2023-02-17T12:20:32.732Z,97577.81
2023-02-17T12:23:20.421Z,97578.47
2023-02-17T12:25:58.419Z,97591.19
2023-02-17T12:28:51.935Z,97586.34
2023-02-17T12:31:52.946Z,97581.34
2023-02-17T12:34:32.823Z,97581.34
2023-02-17T12:37:05.575Z,97583.75
2023-02-17T12:39:42.345Z,97570.94
2023-02-17T12:42:20.378Z,97574.63
2023-02-17T12:44:55.177Z,97561.41
2023-02-17T12:47:32.314Z,97567.84
2023-02-17T12:50:07.056Z,97563.66
2023-02-17T12:52:42.127Z,97565.44
2023-02-17T12:55:20.902Z,97584.41
2023-02-17T12:57:57.133Z,97577.66
2023-02-17T13:00:36.010Z,97590.53
2023-02-17T13:03:06.171Z,97586.16
2023-02-17T13:05:45.182Z,97585.00
2023-02-17T13:08:22.605Z,97599.16
2023-02-17T13:11:03.580Z,97590.44
2023-02-17T13:13:34.599Z,97599.81
2023-02-17T13:16:09.260Z,97586.69
2023-02-17T13:18:40.864Z,97597.22
2023-02-17T13:21:33.042Z,97578.41
2023-02-17T13:24:07.371Z,97577.66
2023-02-17T13:26:37.619Z,97582.03
2023-02-17T13:29:35.708Z,97587.38
2023-02-17T13:32:10.763Z,97600.94
2023-02-17T13:34:43.379Z,97586.75
2023-02-17T13:37:28.289Z,97586.41
2023-02-17T13:39:56.717Z,97583.25
2023-02-17T13:42:45.241Z,97589.44
2023-02-17T13:45:24.182Z,97591.69
2023-02-17T13:47:56.244Z,97587.13
2023-02-17T13:50:32.870Z,97591.50
2023-02-17T13:53:02.432Z,97581.69
2023-02-17T13:55:31.019Z,97586.72
2023-02-17T13:58:00.986Z,97586.00
2023-02-17T14:00:31.884Z,97578.81
2023-02-17T14:03:19.387Z,97574.63
2023-02-17T14:05:52.192Z,97577.38
2023-02-17T14:08:29.693Z,97571.59
2023-02-17T14:10:59.910Z,97577.78
2023-02-17T14:13:28.400Z,97565.13
2023-02-17T14:15:58.999Z,97564.53
2023-02-17T14:18:36.863Z,97569.88
2023-02-17T14:21:10.524Z,97565.03
2023-02-17T14:23:47.614Z,97560.22
2023-02-17T14:26:30.322Z,97563.84
2023-02-17T14:29:01.173Z,97568.13
2023-02-17T14:31:30.427Z,97561.44
2023-02-17T14:34:04.097Z,97558.22
2023-02-17T14:36:42.419Z,97554.22
2023-02-17T14:39:16.595Z,97539.19
2023-02-17T14:41:45.233Z,97547.88
2023-02-17T14:44:13.616Z,97549.66
2023-02-17T14:46:42.027Z,97546.34
2023-02-17T14:49:11.927Z,97542.69
2023-02-17T14:51:41.034Z,97548.63
2023-02-17T14:54:16.990Z,97542.69
2023-02-17T14:56:54.580Z,97549.91
2023-02-17T14:59:22.943Z,97548.47
2023-02-17T15:01:52.112Z,97542.81
2023-02-17T15:04:21.822Z,97537.28
2023-02-17T15:06:54.646Z,97536.88
2023-02-17T15:09:31.102Z,97533.16
2023-02-17T15:12:00.344Z,97531.72
2023-02-17T15:14:28.662Z,97531.72
2023-02-17T15:16:57.022Z,97529.97
2023-02-17T15:19:27.244Z,97539.16
2023-02-17T15:21:57.182Z,97536.31
2023-02-17T15:24:32.574Z,97524.22
2023-02-17T15:27:03.085Z,97536.81
2023-02-17T15:29:31.962Z,97541.59
2023-02-17T15:32:04.749Z,97530.78
2023-02-17T15:34:36.503Z,97538.69
2023-02-17T15:37:08.811Z,97531.94
2023-02-17T15:39:37.148Z,97526.47
2023-02-17T15:42:13.506Z,97529.00
2023-02-17T15:44:48.868Z,97529.31
2023-02-17T15:47:21.168Z,97519.66
2023-02-17T15:49:50.954Z,97533.34
2023-02-17T15:52:19.233Z,97532.03
2023-02-17T15:54:48.365Z,97526.56
2023-02-17T15:57:22.033Z,97541.69
2023-02-17T15:59:55.052Z,97542.19
2023-02-17T16:02:25.933Z,97539.09
2023-02-17T16:04:55.989Z,97538.91
2023-02-17T16:07:24.591Z,97538.78
2023-02-17T16:09:56.668Z,97537.03
2023-02-17T16:12:27.359Z,97542.34
2023-02-17T16:14:56.880Z,97542.13
2023-02-17T16:17:26.466Z,97538.91
2023-02-17T16:19:56.376Z,97538.59
2023-02-17T16:22:24.802Z,97538.28
2023-02-17T16:24:53.618Z,97548.75
2023-02-17T16:27:24.047Z,97543.72
2023-02-17T16:29:52.682Z,97530.78
2023-02-17T16:32:21.101Z,97533.78
2023-02-17T16:34:49.594Z,97527.78
2023-02-17T16:37:19.538Z,97524.50
2023-02-17T16:39:48.320Z,97525.91
2023-02-17T16:42:17.362Z,97529.47
2023-02-17T16:44:45.819Z,97522.34
2023-02-17T16:47:22.503Z,97530.47
2023-02-17T16:49:52.027Z,97533.84
2023-02-17T16:52:26.224Z,97546.94
2023-02-17T16:54:55.362Z,97541.44
2023-02-17T16:57:24.074Z,97549.34
2023-02-17T16:59:52.945Z,97555.41
2023-02-17T17:02:22.090Z,97544.78
2023-02-17T17:04:50.600Z,97551.28
2023-02-17T17:07:23.717Z,97547.13
2023-02-17T17:10:15.286Z,97540.53
2023-02-17T17:15:43.678Z,97530.28
2023-02-17T17:18:20.657Z,97526.13
2023-02-17T17:20:49.884Z,97533.31
2023-02-17T17:23:19.464Z,97544.66
2023-02-17T17:31:47.723Z,97537.31
2023-02-17T17:34:16.315Z,97544.22
2023-02-17T17:36:48.502Z,97540.38
2023-02-17T17:42:15.893Z,97553.03
2023-02-17T17:47:31.484Z,97557.75
2023-02-17T17:50:03.949Z,97566.44
2023-02-17T17:52:41.470Z,97572.31
2023-02-17T17:58:31.653Z,97574.13
2023-02-17T18:01:01.092Z,97567.81
2023-02-17T18:03:30.243Z,97559.13
2023-02-17T18:06:08.458Z,97556.56
2023-02-17T18:11:43.862Z,97556.25
2023-02-17T18:14:16.507Z,97568.41
2023-02-17T18:16:47.602Z,97566.16
2023-02-17T18:21:56.387Z,97573.72
2023-02-17T18:24:25.324Z,97571.63
2023-02-17T18:26:54.338Z,97574.47
2023-02-17T18:29:39.440Z,97575.81
2023-02-17T18:32:24.157Z,97573.25
2023-02-17T18:34:53.488Z,97580.13
2023-02-17T18:37:28.549Z,97585.56
2023-02-17T18:42:38.321Z,97566.25
2023-02-17T18:45:09.882Z,97568.50
2023-02-17T18:47:53.963Z,97566.25
2023-02-17T18:50:23.439Z,97565.19
2023-02-17T18:52:52.408Z,97573.72
2023-02-17T18:55:28.011Z,97569.97
2023-02-17T18:57:58.060Z,97571.13
2023-02-17T19:03:16.574Z,97583.00
2023-02-17T19:05:48.913Z,97581.31
2023-02-17T19:11:02.403Z,97588.34
2023-02-17T19:13:31.396Z,97604.94
2023-02-17T19:19:00.120Z,97606.06
2023-02-17T19:21:28.785Z,97604.13
2023-02-17T19:23:57.779Z,97595.13
2023-02-17T19:26:26.624Z,97592.88
2023-02-17T19:31:42.924Z,97600.47
2023-02-17T19:39:54.339Z,97600.97
2023-02-17T19:42:23.378Z,97607.03
2023-02-17T19:44:51.781Z,97607.75
2023-02-17T19:50:17.714Z,97612.69
2023-02-17T19:55:46.312Z,97619.19
2023-02-17T19:58:14.831Z,97622.22
2023-02-17T20:00:43.732Z,97620.25
2023-02-17T20:03:13.066Z,97625.03
2023-02-17T20:11:48.782Z,97633.13
2023-02-17T20:14:17.766Z,97636.16
2023-02-17T20:22:46.203Z,97640.63
2023-02-17T20:25:14.609Z,97630.00
2023-02-17T20:28:05.364Z,97634.03
2023-02-17T20:30:34.339Z,97642.88
2023-02-17T20:33:03.074Z,97638.81
2023-02-17T20:41:24.601Z,97639.44
2023-02-17T20:43:54.879Z,97642.47
2023-02-17T20:46:26.033Z,97642.88
2023-02-17T20:51:47.561Z,97631.56
2023-02-17T20:54:16.259Z,97624.28
2023-02-17T20:56:49.786Z,97626.19
2023-02-17T20:59:18.871Z,97607.91
2023-02-17T21:01:49.363Z,97626.19
2023-02-17T21:04:18.803Z,97617.38
2023-02-17T21:06:48.168Z,97624.47
2023-02-17T21:09:19.175Z,97633.19
2023-02-17T21:11:49.280Z,97638.16
2023-02-17T21:14:18.055Z,97641.69
2023-02-17T21:22:45.081Z,97653.75
2023-02-17T21:39:31.172Z,97665.97
2023-02-17T21:42:00.166Z,97663.53
2023-02-17T21:44:47.421Z,97669.50
2023-02-17T21:47:16.272Z,97658.25
2023-02-17T21:49:45.411Z,97670.09
2023-02-17T21:52:14.610Z,97676.72
2023-02-17T21:57:54.082Z,97677.09
2023-02-17T22:00:24.679Z,97677.28
2023-02-17T22:02:53.149Z,97658.34
2023-02-17T22:05:21.942Z,97678.00
2023-02-17T22:07:51.229Z,97679.09
2023-02-17T22:19:26.628Z,97665.81
2023-02-17T22:21:55.424Z,97671.09
2023-02-17T22:24:27.155Z,97668.53
2023-02-17T22:26:56.329Z,97694.47
2023-02-17T22:29:25.263Z,97680.00
2023-02-17T22:31:56.213Z,97672.91
2023-02-17T22:34:27.882Z,97679.69
2023-02-17T22:37:15.649Z,97680.31
2023-02-17T22:39:44.122Z,97687.38
2023-02-17T22:42:12.705Z,97684.34
2023-02-17T22:47:32.980Z,97699.22
2023-02-17T22:52:58.308Z,97697.19
2023-02-17T22:55:27.104Z,97701.66
2023-02-17T22:57:55.451Z,97670.88
2023-02-17T23:00:24.189Z,97695.97
2023-02-17T23:02:52.490Z,97701.56
2023-02-17T23:05:22.599Z,97693.88
2023-02-17T23:10:32.819Z,97694.91
2023-02-17T23:13:01.381Z,97684.44
2023-02-17T23:15:40.328Z,97690.53
2023-02-17T23:21:14.748Z,97678.38
2023-02-17T23:26:17.223Z,97672.78
2023-02-17T23:28:46.052Z,97680.50
2023-02-17T23:31:14.962Z,97677.47
2023-02-17T23:33:43.734Z,97673.19
2023-02-17T23:36:15.056Z,97659.00
2023-02-17T23:41:42.107Z,97665.00
2023-02-17T23:44:13.489Z,97683.91
2023-02-17T23:46:44.096Z,97676.34
2023-02-17T23:52:11.089Z,97679.19
2023-02-17T23:54:40.026Z,97690.75
2023-02-17T23:57:09.093Z,97688.81
2023-02-17T23:59:38.450Z,97691.94
